createdAt,value
2018-06-04T00:00:58.817Z,7.67
2018-06-04T00:03:27.046Z,8.27
2018-06-04T00:05:55.327Z,7.80
2018-06-04T00:08:23.555Z,7.77
2018-06-04T00:10:51.776Z,7.63
2018-06-04T00:13:19.993Z,8.23
2018-06-04T00:15:48.224Z,7.77
2018-06-04T00:18:16.449Z,8.40
2018-06-04T00:20:44.669Z,8.87
2018-06-04T00:23:12.886Z,8.40
2018-06-04T00:25:41.105Z,9.13
2018-06-04T00:28:09.406Z,8.53
2018-06-04T00:30:37.642Z,9.50
2018-06-04T00:33:05.865Z,8.20
2018-06-04T00:35:34.085Z,9.30
2018-06-04T00:38:02.301Z,8.27
2018-06-04T00:40:30.541Z,8.47
2018-06-04T00:42:58.749Z,8.77
2018-06-04T00:45:26.969Z,8.40
2018-06-04T00:47:55.193Z,8.27
2018-06-04T00:50:23.397Z,8.60
2018-06-04T00:52:51.620Z,8.90
2018-06-04T00:55:19.837Z,8.40
2018-06-04T00:57:48.062Z,8.97
2018-06-04T01:00:16.276Z,8.50
2018-06-04T01:02:44.497Z,8.60
2018-06-04T01:05:12.704Z,8.73
2018-06-04T01:07:40.933Z,8.63
2018-06-04T01:10:09.156Z,9.40
2018-06-04T01:12:37.376Z,8.90
2018-06-04T01:15:05.340Z,9.10
2018-06-04T01:17:33.557Z,8.80
2018-06-04T01:20:01.781Z,9.70
2018-06-04T01:22:29.999Z,9.00
2018-06-04T01:24:58.213Z,9.63
2018-06-04T01:27:26.565Z,9.13
2018-06-04T01:32:45.362Z,9.47
2018-06-04T01:35:13.330Z,9.53
2018-06-04T01:37:41.537Z,9.33
2018-06-04T01:40:09.816Z,9.90
2018-06-04T01:42:38.016Z,9.53
2018-06-04T01:45:06.233Z,9.10
2018-06-04T01:47:34.450Z,9.40
2018-06-04T01:50:02.657Z,8.93
2018-06-04T01:52:30.870Z,9.10
2018-06-04T01:54:59.065Z,8.90
2018-06-04T01:57:27.278Z,10.47
2018-06-04T01:59:55.970Z,10.00
2018-06-04T02:02:24.889Z,10.07
2018-06-04T02:04:53.108Z,9.87
2018-06-04T02:07:21.330Z,10.30
2018-06-04T02:09:49.556Z,9.13
2018-06-04T02:12:19.146Z,9.97
2018-06-04T02:14:47.356Z,9.90
2018-06-04T02:17:15.608Z,10.30
2018-06-04T02:19:43.833Z,10.87
2018-06-04T02:22:16.801Z,11.07
2018-06-04T02:24:45.024Z,11.37
2018-06-04T02:27:13.249Z,9.87
2018-06-04T02:29:41.462Z,10.80
2018-06-04T02:32:09.689Z,10.67
2018-06-04T02:34:37.917Z,10.80
2018-06-04T02:37:06.142Z,10.27
2018-06-04T02:39:34.362Z,12.33
2018-06-04T02:42:04.609Z,10.67
2018-06-04T02:44:32.829Z,11.23
2018-06-04T02:47:01.064Z,11.50
2018-06-04T02:49:29.325Z,11.33
2018-06-04T02:51:57.561Z,10.50
2018-06-04T02:54:25.830Z,11.37
2018-06-04T02:56:54.204Z,11.50
2018-06-04T02:59:22.438Z,10.27
2018-06-04T03:01:50.680Z,10.17
2018-06-04T03:04:18.917Z,10.63
2018-06-04T03:06:47.151Z,10.80
2018-06-04T03:09:15.390Z,11.20
2018-06-04T03:11:43.670Z,11.67
2018-06-04T03:14:11.895Z,11.23
2018-06-04T03:16:40.126Z,11.10
2018-06-04T03:19:08.354Z,10.43
2018-06-04T03:21:36.585Z,11.83
2018-06-04T03:24:04.817Z,10.67
2018-06-04T03:26:33.045Z,11.40
2018-06-04T03:29:01.289Z,11.13
2018-06-04T03:31:29.513Z,10.93
2018-06-04T03:33:57.772Z,11.03
2018-06-04T03:36:26.005Z,11.60
2018-06-04T03:38:54.389Z,11.03
2018-06-04T03:41:22.629Z,10.30
2018-06-04T03:43:50.877Z,11.37
2018-06-04T03:46:19.198Z,11.10
2018-06-04T03:48:49.881Z,11.93
2018-06-04T03:51:18.117Z,11.07
2018-06-04T03:53:46.349Z,11.83
2018-06-04T03:56:14.581Z,11.37
2018-06-04T03:58:42.808Z,12.13
2018-06-04T04:01:11.041Z,11.57
2018-06-04T04:03:39.313Z,11.83
2018-06-04T04:06:07.562Z,11.37
2018-06-04T04:08:35.802Z,10.63
2018-06-04T04:11:04.127Z,10.67
2018-06-04T04:13:32.477Z,10.67
2018-06-04T04:16:00.743Z,11.03
2018-06-04T04:18:28.711Z,12.43
2018-06-04T04:20:57.042Z,11.63
2018-06-04T04:23:25.273Z,11.50
2018-06-04T04:25:53.509Z,12.20
2018-06-04T04:28:21.720Z,11.90
2018-06-04T04:30:49.949Z,12.07
2018-06-04T04:33:18.173Z,11.93
2018-06-04T04:35:46.377Z,11.20
2018-06-04T04:38:14.584Z,11.33
2018-06-04T04:40:42.794Z,12.30
2018-06-04T04:43:11.056Z,12.27
2018-06-04T04:45:39.293Z,11.60
2018-06-04T04:48:07.530Z,12.63
2018-06-04T04:50:35.838Z,12.53
2018-06-04T04:53:03.932Z,12.50
2018-06-04T04:55:32.190Z,12.67
2018-06-04T04:58:00.373Z,12.50
2018-06-04T05:00:28.606Z,12.90
2018-06-04T05:02:56.837Z,13.10
2018-06-04T05:05:25.340Z,13.67
2018-06-04T05:07:53.745Z,12.67
2018-06-04T05:10:22.166Z,12.93
2018-06-04T05:12:50.394Z,11.60
2018-06-04T05:15:18.624Z,12.87
2018-06-04T05:17:46.857Z,13.20
2018-06-04T05:20:15.077Z,12.93
2018-06-04T05:22:43.300Z,13.40
2018-06-04T05:25:11.566Z,13.17
2018-06-04T05:27:39.793Z,12.67
2018-06-04T05:30:08.014Z,13.40
2018-06-04T05:32:36.242Z,13.43
2018-06-04T05:35:04.473Z,13.57
2018-06-04T05:37:32.689Z,13.03
2018-06-04T05:40:00.918Z,12.00
2018-06-04T05:42:29.145Z,12.60
2018-06-04T05:44:57.464Z,12.57
2018-06-04T05:47:25.689Z,13.00
2018-06-04T05:49:53.999Z,12.87
2018-06-04T05:52:22.327Z,12.93
2018-06-04T05:54:50.558Z,12.60
2018-06-04T05:57:18.781Z,12.27
2018-06-04T05:59:46.991Z,12.87
2018-06-04T06:02:15.214Z,12.23
2018-06-04T06:04:43.421Z,11.97
2018-06-04T06:07:11.633Z,12.10
2018-06-04T06:09:39.850Z,10.83
2018-06-04T06:12:08.050Z,11.17
2018-06-04T06:14:36.266Z,10.37
2018-06-04T06:17:04.470Z,9.93
2018-06-04T06:19:32.677Z,8.83
2018-06-04T06:22:00.878Z,8.67
2018-06-04T06:24:29.094Z,8.20
2018-06-04T06:26:57.304Z,9.55
2018-06-04T06:29:25.527Z,7.83
2018-06-04T06:31:53.740Z,7.33
2018-06-04T06:34:21.935Z,8.08
2018-06-04T06:36:50.162Z,7.80
2018-06-04T06:39:18.359Z,7.50
2018-06-04T06:41:46.571Z,7.03
2018-06-04T06:44:14.778Z,8.68
2018-06-04T06:46:42.978Z,8.88
2018-06-04T06:49:11.178Z,7.90
2018-06-04T06:51:39.381Z,7.60
2018-06-04T06:54:07.590Z,7.95
2018-06-04T06:56:35.805Z,8.63
2018-06-04T06:59:04.048Z,8.70
2018-06-04T07:01:32.265Z,8.68
2018-06-04T07:04:00.481Z,7.78
2018-06-04T07:06:28.725Z,7.87
2018-06-04T07:08:56.954Z,7.55
2018-06-04T07:11:25.212Z,7.83
2018-06-04T07:13:53.469Z,7.87
2018-06-04T07:16:21.701Z,8.08
2018-06-04T07:18:49.949Z,8.05
2018-06-04T07:21:18.173Z,8.43
2018-06-04T07:23:46.468Z,8.60
2018-06-04T07:26:14.697Z,10.50
2018-06-04T07:28:42.928Z,12.63
2018-06-04T07:31:11.220Z,8.28
2018-06-04T07:33:39.441Z,8.53
2018-06-04T07:36:11.034Z,7.40
2018-06-04T07:38:39.997Z,8.08
2018-06-04T07:41:08.341Z,8.13
2018-06-04T07:43:36.472Z,8.10
2018-06-04T07:46:04.698Z,8.28
2018-06-04T07:48:32.937Z,9.88
2018-06-04T07:51:01.163Z,8.48
2018-06-04T07:53:29.385Z,7.87
2018-06-04T07:55:57.605Z,8.13
2018-06-04T07:58:25.853Z,8.48
2018-06-04T08:00:54.120Z,8.38
2018-06-04T08:03:22.345Z,8.38
2018-06-04T08:05:50.572Z,8.98
2018-06-04T08:08:18.813Z,8.38
2018-06-04T08:10:49.109Z,7.62
2018-06-04T08:13:17.328Z,8.40
2018-06-04T08:15:45.558Z,7.22
2018-06-04T08:18:13.789Z,8.15
2018-06-04T08:20:42.037Z,7.87
2018-06-04T08:23:10.268Z,8.33
2018-06-04T08:25:38.493Z,7.72
2018-06-04T08:28:06.729Z,7.60
2018-06-04T08:30:34.961Z,7.53
2018-06-04T08:33:03.185Z,8.38
2018-06-04T08:35:31.418Z,10.28
2018-06-04T08:37:59.656Z,8.25
2018-06-04T08:40:27.880Z,8.58
2018-06-04T08:42:56.726Z,7.67
2018-06-04T08:45:24.967Z,8.10
2018-06-04T08:47:53.196Z,9.13
2018-06-04T08:50:21.442Z,8.00
2018-06-04T08:52:49.670Z,9.00
2018-06-04T08:55:17.917Z,7.50
2018-06-04T08:57:46.147Z,7.58
2018-06-04T09:00:14.116Z,8.28
2018-06-04T09:02:42.350Z,7.17
2018-06-04T09:05:10.578Z,7.10
2018-06-04T09:07:38.829Z,8.23
2018-06-04T09:10:07.084Z,7.33
2018-06-04T09:12:35.313Z,8.10
2018-06-04T09:15:03.582Z,8.15
2018-06-04T09:17:32.163Z,7.15
2018-06-04T09:20:00.411Z,7.10
2018-06-04T09:22:28.664Z,7.53
2018-06-04T09:24:56.884Z,7.10
2018-06-04T09:27:25.174Z,7.42
2018-06-04T09:29:53.413Z,7.22
2018-06-04T09:32:21.704Z,6.70
2018-06-04T09:34:49.903Z,6.62
2018-06-04T09:37:18.129Z,6.85
2018-06-04T09:39:46.481Z,6.50
2018-06-04T09:42:14.693Z,5.95
2018-06-04T09:44:42.904Z,6.33
2018-06-04T09:47:11.121Z,5.92
2018-06-04T09:49:39.344Z,5.83
2018-06-04T09:52:07.560Z,6.10
2018-06-04T09:54:35.785Z,6.62
2018-06-04T09:59:55.877Z,6.08
2018-06-04T10:02:24.093Z,5.62
2018-06-04T10:04:52.335Z,4.97
2018-06-04T10:07:20.546Z,5.53
2018-06-04T10:09:48.774Z,5.90
2018-06-04T10:12:16.989Z,5.90
2018-06-04T10:14:45.205Z,6.45
2018-06-04T10:17:13.449Z,6.10
2018-06-04T10:19:41.685Z,6.95
2018-06-04T10:22:09.902Z,5.72
2018-06-04T10:24:38.209Z,5.40
2018-06-04T10:27:06.425Z,5.55
2018-06-04T10:29:34.650Z,5.90
2018-06-04T10:32:02.873Z,5.87
2018-06-04T10:34:31.097Z,5.83
2018-06-04T10:36:59.316Z,5.25
2018-06-04T10:39:27.569Z,5.53
2018-06-04T10:41:55.820Z,5.08
2018-06-04T10:44:24.032Z,5.78
2018-06-04T10:46:52.258Z,5.08
2018-06-04T10:49:20.485Z,5.00
2018-06-04T10:51:48.721Z,4.53
2018-06-04T10:54:16.952Z,4.72
2018-06-04T10:56:45.180Z,5.80
2018-06-04T10:59:13.428Z,5.28
2018-06-04T11:01:41.652Z,5.90
2018-06-04T11:04:09.877Z,5.78
2018-06-04T11:06:38.114Z,6.05
2018-06-04T11:09:08.475Z,5.80
2018-06-04T11:11:36.710Z,5.47
2018-06-04T11:14:04.936Z,5.65
2018-06-04T11:16:33.178Z,5.50
2018-06-04T11:19:01.401Z,5.75
2018-06-04T11:21:29.657Z,5.22
2018-06-04T11:23:57.885Z,5.42
2018-06-04T11:26:26.158Z,5.17
2018-06-04T11:28:54.429Z,5.28
2018-06-04T11:31:22.669Z,5.62
2018-06-04T11:33:50.898Z,6.03
2018-06-04T11:36:19.134Z,6.15
2018-06-04T11:38:47.112Z,5.05
2018-06-04T11:41:15.365Z,4.90
2018-06-04T11:43:43.609Z,5.10
2018-06-04T11:46:11.846Z,5.10
2018-06-04T11:48:40.073Z,4.92
2018-06-04T11:51:08.330Z,4.87
2018-06-04T11:53:36.563Z,5.12
2018-06-04T11:56:04.948Z,4.97
2018-06-04T11:58:33.169Z,4.90
2018-06-04T12:01:01.406Z,4.53
2018-06-04T12:03:29.626Z,4.80
2018-06-04T12:05:57.904Z,5.08
2018-06-04T12:08:26.124Z,4.83
2018-06-04T12:10:54.356Z,5.37
2018-06-04T12:13:22.577Z,4.75
2018-06-04T12:15:50.797Z,4.78
2018-06-04T12:18:19.013Z,4.80
2018-06-04T12:20:47.227Z,4.95
2018-06-04T12:23:15.444Z,5.00
2018-06-04T12:25:43.666Z,4.95
2018-06-04T12:28:11.930Z,5.20
2018-06-04T12:30:40.120Z,5.20
2018-06-04T12:33:08.366Z,5.42
2018-06-04T12:35:36.596Z,4.92
2018-06-04T12:38:04.817Z,5.28
2018-06-04T12:40:33.038Z,5.00
2018-06-04T12:43:01.268Z,5.37
2018-06-04T12:45:29.488Z,4.83
2018-06-04T12:47:57.713Z,4.67
2018-06-04T12:50:25.928Z,5.03
2018-06-04T12:52:54.256Z,5.35
2018-06-04T12:55:22.488Z,5.35
2018-06-04T12:57:50.704Z,5.20
2018-06-04T13:00:18.929Z,4.97
2018-06-04T13:02:47.154Z,4.62
2018-06-04T13:05:15.372Z,4.90
2018-06-04T13:07:43.597Z,5.05
2018-06-04T13:10:11.822Z,5.10
2018-06-04T13:12:40.038Z,5.25
2018-06-04T13:15:08.261Z,4.40
2018-06-04T13:17:36.477Z,4.87
2018-06-04T13:20:04.697Z,5.22
2018-06-04T13:22:32.912Z,4.45
2018-06-04T13:25:01.134Z,4.75
2018-06-04T13:27:29.356Z,4.80
2018-06-04T13:29:57.581Z,5.03
2018-06-04T13:32:25.798Z,5.03
2018-06-04T13:34:54.048Z,4.75
2018-06-04T13:37:22.278Z,4.72
2018-06-04T13:39:50.520Z,5.03
2018-06-04T13:42:18.741Z,5.17
2018-06-04T13:44:46.979Z,5.55
2018-06-04T13:47:15.201Z,4.90
2018-06-04T13:49:43.421Z,4.90
2018-06-04T13:52:11.645Z,4.78
2018-06-04T13:54:39.894Z,4.65
2018-06-04T13:57:08.125Z,4.65
2018-06-04T13:59:37.452Z,4.80
2018-06-04T14:02:05.956Z,5.15
2018-06-04T14:04:34.185Z,4.62
2018-06-04T14:07:02.414Z,4.97
2018-06-04T14:09:30.621Z,4.95
2018-06-04T14:11:58.836Z,4.58
2018-06-04T14:14:27.061Z,4.05
2018-06-04T14:16:55.296Z,4.47
2018-06-04T14:19:23.512Z,4.00
2018-06-04T14:21:51.732Z,4.47
2018-06-04T14:24:19.953Z,4.60
2018-06-04T14:26:48.274Z,3.87
2018-06-04T14:29:16.500Z,4.65
2018-06-04T14:31:44.733Z,4.65
2018-06-04T14:34:12.953Z,4.33
2018-06-04T14:36:52.105Z,4.60
2018-06-04T14:39:21.819Z,4.17
2018-06-04T14:41:50.105Z,3.70
2018-06-04T14:44:18.338Z,4.20
2018-06-04T14:46:47.351Z,3.85
2018-06-04T14:49:16.255Z,3.90
2018-06-04T14:51:44.532Z,4.00
2018-06-04T14:54:13.571Z,3.80
2018-06-04T14:56:41.810Z,4.40
2018-06-04T14:59:10.038Z,4.33
2018-06-04T15:01:39.480Z,4.42
2018-06-04T15:04:07.445Z,5.10
2018-06-04T15:06:35.813Z,4.95
2018-06-04T15:09:06.116Z,4.80
2018-06-04T15:11:36.209Z,4.22
2018-06-04T15:14:06.371Z,4.42
2018-06-04T15:16:35.608Z,4.67
2018-06-04T15:19:04.666Z,4.72
2018-06-04T15:21:33.142Z,4.05
2018-06-04T15:24:01.449Z,4.50
2018-06-04T15:26:31.172Z,4.58
2018-06-04T15:28:59.827Z,4.20
2018-06-04T15:31:28.133Z,4.37
2018-06-04T15:33:57.833Z,3.92
2018-06-04T15:36:26.329Z,4.33
2018-06-04T15:38:54.537Z,4.30
2018-06-04T15:41:22.740Z,4.47
2018-06-04T15:43:51.522Z,4.80
2018-06-04T15:46:22.741Z,4.85
2018-06-04T15:48:51.333Z,4.75
2018-06-04T15:51:19.575Z,4.92
2018-06-04T15:53:47.792Z,4.70
2018-06-04T15:56:16.028Z,4.65
2018-06-04T15:58:44.000Z,4.85
2018-06-04T16:01:12.229Z,5.25
2018-06-04T16:03:40.460Z,5.03
2018-06-04T16:07:46.752Z,5.15
2018-06-04T16:10:15.994Z,5.20
2018-06-04T16:12:44.910Z,4.78
2018-06-04T16:15:13.189Z,5.15
2018-06-04T16:17:43.209Z,5.17
2018-06-04T16:20:11.445Z,4.80
2018-06-04T16:22:40.292Z,5.12
2018-06-04T16:25:09.612Z,5.05
2018-06-04T16:27:37.820Z,5.00
2018-06-04T16:30:06.889Z,4.72
2018-06-04T16:32:36.277Z,4.60
2018-06-04T16:35:04.542Z,4.67
2018-06-04T16:37:33.781Z,5.47
2018-06-04T16:40:02.326Z,4.92
2018-06-04T16:42:30.545Z,5.08
2018-06-04T16:45:00.058Z,5.50
2018-06-04T16:47:29.246Z,4.53
2018-06-04T16:49:57.561Z,4.83
2018-06-04T16:52:25.532Z,4.53
2018-06-04T16:54:53.750Z,4.85
2018-06-04T16:57:21.963Z,4.95
2018-06-04T16:59:49.964Z,5.47
2018-06-04T17:02:18.185Z,5.22
2018-06-04T17:04:46.408Z,5.37
2018-06-04T17:07:14.625Z,5.28
2018-06-04T17:09:42.842Z,5.03
2018-06-04T17:12:11.073Z,5.58
2018-06-04T17:14:39.332Z,5.42
2018-06-04T17:17:07.565Z,5.05
2018-06-04T17:19:35.797Z,5.83
2018-06-04T17:22:04.012Z,5.20
2018-06-04T17:24:31.995Z,5.40
2018-06-04T17:27:00.356Z,5.60
2018-06-04T17:29:28.641Z,6.00
2018-06-04T17:31:57.754Z,6.10
2018-06-04T17:34:25.960Z,5.85
2018-06-04T17:39:45.145Z,6.22
2018-06-04T17:42:13.459Z,5.60
2018-06-04T17:44:41.693Z,6.30
2018-06-04T17:47:10.421Z,6.25
2018-06-04T17:49:38.648Z,6.50
2018-06-04T17:52:06.857Z,6.28
2018-06-04T17:54:35.057Z,6.95
2018-06-04T17:57:03.285Z,6.40
2018-06-04T17:59:32.297Z,6.62
2018-06-04T18:02:01.389Z,6.45
2018-06-04T18:04:30.259Z,6.05
2018-06-04T18:06:58.620Z,6.47
2018-06-04T18:09:26.836Z,5.77
2018-06-04T18:11:55.072Z,6.33
2018-06-04T18:14:23.377Z,7.03
2018-06-04T18:16:51.634Z,6.53
2018-06-04T18:19:19.853Z,6.60
2018-06-04T18:21:48.058Z,6.70
2018-06-04T18:24:16.299Z,6.53
2018-06-04T18:26:44.509Z,6.40
2018-06-04T18:29:12.717Z,6.60
2018-06-04T18:31:41.219Z,6.23
2018-06-04T18:34:09.305Z,6.50
2018-06-04T18:36:37.594Z,6.50
2018-06-04T18:41:58.028Z,6.40
2018-06-04T18:44:26.260Z,6.40
2018-06-04T18:46:54.512Z,6.60
2018-06-04T18:49:22.709Z,6.17
2018-06-04T18:51:50.912Z,6.33
2018-06-04T18:54:18.899Z,6.80
2018-06-04T18:56:47.097Z,7.13
2018-06-04T18:59:15.328Z,5.93
2018-06-04T19:01:43.822Z,6.77
2018-06-04T19:04:12.323Z,6.37
2018-06-04T19:06:40.552Z,6.53
2018-06-04T19:09:09.478Z,6.50
2018-06-04T19:11:38.137Z,6.70
2018-06-04T19:14:06.408Z,6.67
2018-06-04T19:16:34.645Z,6.77
2018-06-04T19:19:03.634Z,7.17
2018-06-04T19:21:32.460Z,7.17
2018-06-04T19:24:00.693Z,6.83
2018-06-04T19:26:30.054Z,6.83
2018-06-04T19:28:58.306Z,6.90
2018-06-04T19:31:26.540Z,6.70
2018-06-04T19:33:54.803Z,7.50
2018-06-04T19:36:23.121Z,6.43
2018-06-04T19:38:51.345Z,7.57
2018-06-04T19:41:19.677Z,6.87
2018-06-04T19:43:47.904Z,7.43
2018-06-04T19:46:16.124Z,7.20
2018-06-04T19:48:44.357Z,7.60
2018-06-04T19:51:12.580Z,7.33
2018-06-04T19:53:40.822Z,7.23
2018-06-04T19:56:08.797Z,7.03
2018-06-04T19:58:36.992Z,7.33
2018-06-04T20:01:07.104Z,7.70
2018-06-04T20:03:35.389Z,8.20
2018-06-04T20:06:03.625Z,8.13
2018-06-04T20:08:31.925Z,8.40
2018-06-04T20:11:00.135Z,8.03
2018-06-04T20:13:28.380Z,8.00
2018-06-04T20:15:56.396Z,7.93
2018-06-04T20:18:25.073Z,7.73
2018-06-04T20:23:44.017Z,8.03
2018-06-04T20:26:12.282Z,8.10
2018-06-04T20:28:40.560Z,8.50
2018-06-04T20:31:08.825Z,8.43
2018-06-04T20:33:37.065Z,7.80
2018-06-04T20:36:05.306Z,8.53
2018-06-04T20:38:33.549Z,8.40
2018-06-04T20:41:01.793Z,8.80
2018-06-04T20:43:30.025Z,7.53
2018-06-04T20:45:58.258Z,8.20
2018-06-04T20:48:26.502Z,8.93
2018-06-04T20:50:54.829Z,8.73
2018-06-04T20:53:23.065Z,9.20
2018-06-04T20:55:51.289Z,8.77
2018-06-04T20:58:19.518Z,8.57
2018-06-04T21:00:47.741Z,8.70
2018-06-04T21:03:15.982Z,8.53
2018-06-04T21:05:44.221Z,8.90
2018-06-04T21:08:12.453Z,9.03
2018-06-04T21:10:40.692Z,10.03
2018-06-04T21:13:08.932Z,9.40
2018-06-04T21:15:37.173Z,10.13
2018-06-04T21:18:05.421Z,10.20
2018-06-04T21:20:33.956Z,9.40
2018-06-04T21:23:04.101Z,9.77
2018-06-04T21:25:36.154Z,10.13
2018-06-04T21:28:04.457Z,10.10
2018-06-04T21:30:32.772Z,10.80
2018-06-04T21:33:01.016Z,9.77
2018-06-04T21:35:29.265Z,10.50
2018-06-04T21:37:57.519Z,10.30
2018-06-04T21:40:25.785Z,10.13
2018-06-04T21:42:54.033Z,10.63
2018-06-04T21:45:22.277Z,10.43
2018-06-04T21:47:50.523Z,9.87
2018-06-04T21:50:18.756Z,10.03
2018-06-04T21:52:47.334Z,11.50
2018-06-04T21:55:15.593Z,11.13
2018-06-04T21:57:43.920Z,10.87
2018-06-04T22:00:12.196Z,11.07
2018-06-04T22:02:40.443Z,10.43
2018-06-04T22:05:08.681Z,12.00
2018-06-04T22:07:36.909Z,11.43
2018-06-04T22:10:05.877Z,11.07
2018-06-04T22:12:34.117Z,11.23
2018-06-04T22:15:02.353Z,11.50
2018-06-04T22:17:30.593Z,10.97
2018-06-04T22:19:58.825Z,12.60
2018-06-04T22:22:27.082Z,11.40
2018-06-04T22:24:55.320Z,11.97
2018-06-04T22:27:23.596Z,10.33
2018-06-04T22:29:51.837Z,11.50
2018-06-04T22:32:20.082Z,12.40
2018-06-04T22:34:48.345Z,12.47
2018-06-04T22:37:16.576Z,12.13
2018-06-04T22:39:44.809Z,12.77
2018-06-04T22:42:13.037Z,11.50
2018-06-04T22:44:42.211Z,12.03
2018-06-04T22:47:10.817Z,11.87
2018-06-04T22:49:39.184Z,11.83
2018-06-04T22:52:07.425Z,12.40
2018-06-04T22:54:35.661Z,11.83
2018-06-04T22:57:03.909Z,11.93
2018-06-04T22:59:32.149Z,12.23
2018-06-04T23:02:00.381Z,12.27
2018-06-04T23:04:28.615Z,12.77
2018-06-04T23:06:56.865Z,13.20
2018-06-04T23:09:25.117Z,12.50
2018-06-04T23:11:53.385Z,12.90
2018-06-04T23:14:21.673Z,12.80
2018-06-04T23:16:49.932Z,12.87
2018-06-04T23:19:18.165Z,12.23
2018-06-04T23:21:46.420Z,12.33
2018-06-04T23:24:14.657Z,12.47
2018-06-04T23:26:42.893Z,12.40
2018-06-04T23:29:11.113Z,13.07
2018-06-04T23:31:39.332Z,13.67
2018-06-04T23:34:07.645Z,14.33
2018-06-04T23:36:36.053Z,13.33
2018-06-04T23:39:07.168Z,13.33
2018-06-04T23:41:35.391Z,12.87
2018-06-04T23:44:03.725Z,14.40
2018-06-04T23:46:31.949Z,13.37
2018-06-04T23:49:00.168Z,13.40
2018-06-04T23:51:28.385Z,13.47
2018-06-04T23:53:56.612Z,13.90
2018-06-04T23:56:24.845Z,13.50
2018-06-04T23:58:53.076Z,13.93
